Time;durP1;ratioP1;P1;durP2;ratioP2;P2;SDS_P1;SDS_P2;PMS_P1;PMS_P2;Temp;Humidity;BMP_temperature;BMP_pressure;BME280_temperature;BME280_humidity;BME280_pressure;Samples;Min_cycle;Max_cycle;Signal;HPM_P1;HPM_P2
2022/07/22 00:00:35;;;;;;;6.32;2.55;;;17.30;99.90;;;;;;4888287;29;20055;-72
2022/07/22 00:03:01;;;;;;;7.63;2.35;;;17.20;99.90;;;;;;4890022;29;20187;-72
2022/07/22 00:05:27;;;;;;;6.50;2.85;;;17.20;99.90;;;;;;4872347;29;20637;-72
2022/07/22 00:07:53;;;;;;;7.03;2.78;;;17.20;99.90;;;;;;4891365;29;20061;-73
2022/07/22 00:10:18;;;;;;;7.60;2.60;;;17.20;99.90;;;;;;4883821;29;20392;-73
2022/07/22 00:12:44;;;;;;;9.57;3.20;;;17.10;99.90;;;;;;4894925;29;20396;-73
2022/07/22 00:15:10;;;;;;;10.27;3.08;;;17.20;99.90;;;;;;4892652;29;20401;-72
2022/07/22 00:17:38;;;;;;;17.08;3.85;;;17.20;99.90;;;;;;4892557;29;20048;-73
2022/07/22 00:20:06;;;;;;;9.02;3.28;;;17.10;99.90;;;;;;4885323;29;20118;-72
2022/07/22 00:22:32;;;;;;;7.03;3.03;;;17.10;99.90;;;;;;4862702;29;20429;-72
2022/07/22 00:24:58;;;;;;;8.90;3.70;;;17.10;99.90;;;;;;4892198;29;20052;-71
2022/07/22 00:27:24;;;;;;;6.55;3.45;;;17.00;99.90;;;;;;4894157;29;20127;-73
2022/07/22 00:29:49;;;;;;;7.82;3.47;;;17.00;99.90;;;;;;4874689;29;20100;-73
2022/07/22 00:32:15;;;;;;;8.93;3.75;;;17.00;99.90;;;;;;4891938;29;20517;-72
2022/07/22 00:34:41;;;;;;;7.43;3.75;;;17.00;99.90;;;;;;4891332;29;20188;-72
2022/07/22 00:37:07;;;;;;;6.22;3.45;;;17.00;99.90;;;;;;4893023;29;20048;-72
2022/07/22 00:39:33;;;;;;;9.48;4.35;;;17.00;99.90;;;;;;4890812;29;20139;-73
2022/07/22 00:41:59;;;;;;;9.30;3.83;;;16.90;99.90;;;;;;4894735;29;20197;-74
2022/07/22 00:44:25;;;;;;;9.35;3.72;;;16.90;99.90;;;;;;4890918;29;20059;-72
2022/07/22 00:46:51;;;;;;;10.70;3.47;;;16.80;99.90;;;;;;4873452;29;20041;-72
2022/07/22 00:49:16;;;;;;;9.95;4.10;;;16.80;99.90;;;;;;4883861;29;20041;-73
2022/07/22 00:51:42;;;;;;;9.68;4.00;;;16.70;99.90;;;;;;4886097;29;20057;-73
2022/07/22 00:54:08;;;;;;;12.77;4.10;;;16.70;99.90;;;;;;4886199;29;20215;-71
2022/07/22 00:56:36;;;;;;;8.57;3.97;;;16.70;99.90;;;;;;4891900;29;20517;-72
2022/07/22 00:59:03;;;;;;;;;;;16.70;99.90;;;;;;4892621;29;20063;-72
2022/07/22 01:01:28;;;;;;;;;;;16.70;99.90;;;;;;4870692;29;20371;-73
2022/07/22 01:03:54;;;;;;;12.02;3.58;;;16.60;99.90;;;;;;4893411;29;20039;-72
2022/07/22 01:06:20;;;;;;;10.93;4.07;;;16.60;99.90;;;;;;4888899;29;20040;-73
2022/07/22 01:08:46;;;;;;;12.35;3.67;;;16.60;99.90;;;;;;4889059;29;20131;-71
2022/07/22 01:11:18;;;;;;;11.10;3.38;;;16.60;99.90;;;;;;4891272;29;20045;-72
2022/07/22 01:13:45;;;;;;;12.48;3.75;;;16.60;99.90;;;;;;4890620;29;20048;-73
2022/07/22 01:16:13;;;;;;;12.25;3.95;;;16.60;99.90;;;;;;4876682;29;20061;-73
2022/07/22 01:18:39;;;;;;;11.63;3.80;;;16.50;99.90;;;;;;4890184;29;20053;-72
2022/07/22 01:21:06;;;;;;;13.32;4.00;;;16.50;99.90;;;;;;4889825;29;20053;-72
2022/07/22 01:23:32;;;;;;;16.05;4.20;;;16.50;99.90;;;;;;4891982;29;20721;-72
2022/07/22 01:25:58;;;;;;;11.00;3.95;;;16.50;99.90;;;;;;4889318;29;20040;-73
2022/07/22 01:28:24;;;;;;;14.98;4.10;;;16.50;99.90;;;;;;4889431;29;20515;-71
2022/07/22 01:30:50;;;;;;;12.98;4.47;;;16.60;99.90;;;;;;4888502;29;20404;-72
2022/07/22 01:33:19;;;;;;;9.75;4.30;;;16.60;99.90;;;;;;4879021;29;20043;-72
2022/07/22 01:35:45;;;;;;;14.77;4.72;;;16.60;99.90;;;;;;4885989;29;20092;-72
2022/07/22 01:38:12;;;;;;;13.10;4.70;;;16.60;99.90;;;;;;4883104;29;20438;-72
2022/07/22 01:40:38;;;;;;;13.63;5.07;;;16.60;99.90;;;;;;4886790;29;20041;-71
2022/07/22 01:43:04;;;;;;;9.82;4.72;;;16.60;99.90;;;;;;4878287;29;20460;-72
2022/07/22 01:45:30;;;;;;;9.65;4.32;;;16.60;99.90;;;;;;4882250;29;20127;-72
2022/07/22 01:47:56;;;;;;;13.38;4.80;;;16.70;99.90;;;;;;4893112;29;20141;-72
2022/07/22 01:50:22;;;;;;;13.88;4.90;;;16.60;99.90;;;;;;4877583;29;20508;-71
2022/07/22 01:52:47;;;;;;;16.17;5.38;;;16.70;99.90;;;;;;4889895;29;20100;-72
2022/07/22 01:55:13;;;;;;;15.43;4.80;;;16.70;99.90;;;;;;4891357;29;20056;-73
2022/07/22 01:57:39;;;;;;;15.55;5.50;;;16.70;99.90;;;;;;4879963;29;20052;-73
2022/07/22 02:00:08;;;;;;;12.52;4.90;;;16.70;99.90;;;;;;4884365;29;20048;-71
2022/07/22 02:02:35;;;;;;;10.48;4.63;;;16.80;99.90;;;;;;4887175;29;20037;-73
2022/07/22 02:05:04;;;;;;;13.25;4.72;;;16.70;99.90;;;;;;4895119;29;20132;-72
2022/07/22 02:07:30;;;;;;;12.52;4.07;;;16.70;99.90;;;;;;4899366;29;20060;-72
2022/07/22 02:09:55;;;;;;;12.27;4.40;;;16.70;99.90;;;;;;4893914;29;20507;-73
2022/07/22 02:12:21;;;;;;;13.45;4.40;;;16.70;99.90;;;;;;4896994;29;20036;-72
2022/07/22 02:14:47;;;;;;;14.00;4.82;;;16.70;99.90;;;;;;4881579;29;20049;-72
2022/07/22 02:17:13;;;;;;;14.95;5.40;;;16.70;99.90;;;;;;4889082;29;20063;-74
2022/07/22 02:19:40;;;;;;;11.35;4.07;;;16.70;99.90;;;;;;4897274;29;20104;-73
2022/07/22 02:22:06;;;;;;;12.00;4.05;;;16.70;99.90;;;;;;4891166;29;20041;-71
2022/07/22 02:24:32;;;;;;;14.75;4.43;;;16.70;99.90;;;;;;4880206;29;20049;-72
2022/07/22 02:26:57;;;;;;;14.30;4.15;;;16.70;99.90;;;;;;4900555;29;20095;-73
2022/07/22 02:29:23;;;;;;;13.05;4.05;;;16.70;99.90;;;;;;4897539;29;20120;-71
2022/07/22 02:31:49;;;;;;;13.02;4.47;;;16.60;99.90;;;;;;4892188;29;20064;-72
2022/07/22 02:34:15;;;;;;;13.20;4.32;;;16.70;99.90;;;;;;4894850;29;20047;-72
2022/07/22 02:36:40;;;;;;;12.45;4.00;;;16.70;99.90;;;;;;4895144;29;20547;-73
2022/07/22 02:39:06;;;;;;;13.75;4.13;;;16.70;99.90;;;;;;4896798;29;20207;-72
2022/07/22 02:41:32;;;;;;;17.88;4.32;;;16.70;99.90;;;;;;4883907;29;20105;-72
2022/07/22 02:43:58;;;;;;;12.48;3.90;;;16.70;99.90;;;;;;4886853;29;20112;-73
2022/07/22 02:46:25;;;;;;;14.90;4.63;;;16.60;99.90;;;;;;4901540;29;20049;-73
2022/07/22 02:48:51;;;;;;;13.43;4.22;;;16.60;99.90;;;;;;4897586;29;20053;-72
2022/07/22 02:51:17;;;;;;;13.68;3.67;;;16.60;99.90;;;;;;4887144;29;20624;-71
2022/07/22 02:53:43;;;;;;;10.77;3.47;;;16.50;99.90;;;;;;4894156;29;20040;-75
2022/07/22 02:56:08;;;;;;;15.93;4.32;;;16.50;99.90;;;;;;4879634;29;20037;-72
2022/07/22 02:58:34;;;;;;;14.38;4.00;;;16.40;99.90;;;;;;4896976;29;20352;-72
2022/07/22 03:01:00;;;;;;;17.45;4.30;;;16.50;99.90;;;;;;4896908;29;20104;-73
2022/07/22 03:03:26;;;;;;;11.15;3.97;;;16.50;99.90;;;;;;4889703;29;20045;-73
2022/07/22 03:05:51;;;;;;;12.77;3.60;;;16.50;99.90;;;;;;4897089;29;20041;-73
2022/07/22 03:08:17;;;;;;;13.85;4.07;;;16.50;99.90;;;;;;4894693;29;20048;-72
2022/07/22 03:10:44;;;;;;;11.57;4.22;;;16.50;99.90;;;;;;4887496;29;20076;-71
2022/07/22 03:13:09;;;;;;;11.73;3.83;;;16.50;99.90;;;;;;4898065;29;20048;-73
2022/07/22 03:15:35;;;;;;;13.32;3.85;;;16.50;99.90;;;;;;4895407;29;20417;-73
2022/07/22 03:18:01;;;;;;;11.52;4.03;;;16.50;99.90;;;;;;4889120;29;20045;-73
2022/07/22 03:20:27;;;;;;;15.95;4.20;;;16.50;99.90;;;;;;4895704;29;20449;-72
2022/07/22 03:22:53;;;;;;;13.77;3.67;;;16.50;99.90;;;;;;4895202;29;20120;-73
2022/07/22 03:25:18;;;;;;;15.05;4.28;;;16.50;99.90;;;;;;4894996;29;20063;-73
2022/07/22 03:27:44;;;;;;;10.25;3.75;;;16.50;99.90;;;;;;4895697;29;20044;-73
2022/07/22 03:30:10;;;;;;;10.60;3.90;;;16.50;99.90;;;;;;4885303;29;20393;-73
2022/07/22 03:32:36;;;;;;;15.52;3.67;;;16.50;99.90;;;;;;4893322;29;20055;-72
2022/07/22 03:35:02;;;;;;;12.38;3.72;;;16.50;99.90;;;;;;4893538;29;20048;-73
2022/07/22 03:37:28;;;;;;;9.30;2.95;;;16.50;99.90;;;;;;4896920;29;20045;-72
2022/07/22 03:39:53;;;;;;;11.70;3.58;;;16.50;99.90;;;;;;4890124;29;20511;-73
2022/07/22 03:42:19;;;;;;;8.93;3.20;;;16.50;99.90;;;;;;4886080;29;20043;-73
2022/07/22 03:44:46;;;;;;;13.80;3.25;;;16.50;99.90;;;;;;4895155;29;20489;-73
2022/07/22 03:47:16;;;;;;;11.05;3.35;;;16.50;99.90;;;;;;4892557;29;20051;-72
2022/07/22 03:49:42;;;;;;;10.43;3.13;;;16.50;99.90;;;;;;4876446;29;20416;-73
2022/07/22 03:52:08;;;;;;;14.50;3.55;;;16.40;99.90;;;;;;4894650;29;20056;-71
2022/07/22 03:54:33;;;;;;;12.18;3.50;;;16.40;99.90;;;;;;4893417;29;20067;-72
2022/07/22 03:56:59;;;;;;;13.20;4.28;;;16.50;99.90;;;;;;4895014;29;20545;-73
2022/07/22 03:59:25;;;;;;;12.82;3.50;;;16.50;99.90;;;;;;4890520;29;20052;-72
2022/07/22 04:01:50;;;;;;;7.93;3.15;;;16.50;99.90;;;;;;4885144;29;20120;-73
2022/07/22 04:04:16;;;;;;;9.43;3.30;;;16.50;99.90;;;;;;4889796;29;20052;-73
2022/07/22 04:06:41;;;;;;;12.52;3.20;;;16.50;99.90;;;;;;4894991;29;20465;-74
2022/07/22 04:09:07;;;;;;;12.07;3.30;;;16.50;99.90;;;;;;4884660;29;20402;-72
2022/07/22 04:11:33;;;;;;;10.27;3.35;;;16.50;99.90;;;;;;4889068;29;20117;-74
2022/07/22 04:14:00;;;;;;;10.98;3.13;;;16.50;99.90;;;;;;4881801;29;20059;-73
2022/07/22 04:16:25;;;;;;;9.68;3.10;;;16.50;99.90;;;;;;4885728;29;20124;-72
2022/07/22 04:18:51;;;;;;;9.82;3.05;;;16.50;99.90;;;;;;4891314;29;20184;-73
2022/07/22 04:21:17;;;;;;;9.45;2.92;;;16.40;99.90;;;;;;4893854;29;20507;-72
2022/07/22 04:23:43;;;;;;;8.38;3.28;;;16.50;99.90;;;;;;4887430;29;20438;-73
2022/07/22 04:26:09;;;;;;;10.27;3.10;;;16.50;99.90;;;;;;4893832;29;20037;-72
2022/07/22 04:28:37;;;;;;;9.10;2.80;;;16.50;99.90;;;;;;4893916;29;20037;-73
2022/07/22 04:31:03;;;;;;;13.35;3.00;;;16.40;99.90;;;;;;4890355;29;20052;-73
2022/07/22 04:33:29;;;;;;;9.35;3.05;;;16.40;99.90;;;;;;4895073;29;20127;-73
2022/07/22 04:35:55;;;;;;;12.07;3.30;;;16.50;99.90;;;;;;4881575;29;20131;-72
2022/07/22 04:38:21;;;;;;;7.13;2.65;;;16.40;99.90;;;;;;4894768;29;20048;-73
2022/07/22 04:40:46;;;;;;;10.38;2.70;;;16.40;99.90;;;;;;4888268;29;20041;-74
2022/07/22 04:43:12;;;;;;;7.53;2.40;;;16.40;99.90;;;;;;4890711;29;20484;-74
2022/07/22 04:45:38;;;;;;;8.65;2.67;;;16.40;99.90;;;;;;4894741;29;20489;-72
2022/07/22 04:48:04;;;;;;;7.43;2.50;;;16.40;99.90;;;;;;4888115;29;20432;-74
2022/07/22 04:50:29;;;;;;;12.73;3.55;;;16.40;99.90;;;;;;4888485;29;20052;-72
2022/07/22 04:52:55;;;;;;;10.10;3.08;;;16.40;99.90;;;;;;4893925;29;20056;-72
2022/07/22 04:55:21;;;;;;;9.27;2.67;;;16.50;99.90;;;;;;4892601;29;20112;-71
2022/07/22 04:57:46;;;;;;;9.60;2.97;;;16.50;99.90;;;;;;4887029;29;20820;-73
2022/07/22 05:00:13;;;;;;;9.15;3.10;;;16.50;99.90;;;;;;4894422;29;20048;-71
2022/07/22 05:02:38;;;;;;;10.95;2.80;;;16.50;99.90;;;;;;4890039;29;20055;-73
2022/07/22 05:05:05;;;;;;;8.45;2.47;;;16.60;99.90;;;;;;4892657;29;20404;-73
2022/07/22 05:07:30;;;;;;;11.27;3.00;;;16.60;99.90;;;;;;4893363;29;20572;-73
2022/07/22 05:09:56;;;;;;;11.27;2.88;;;16.60;99.90;;;;;;4894304;29;20133;-72
2022/07/22 05:12:22;;;;;;;7.10;2.70;;;16.70;99.90;;;;;;4892681;29;20053;-73
2022/07/22 05:14:48;;;;;;;11.27;2.83;;;16.60;99.90;;;;;;4890189;29;20040;-73
2022/07/22 05:17:13;;;;;;;7.63;2.50;;;16.60;99.90;;;;;;4876785;29;20083;-72
2022/07/22 05:19:39;;;;;;;7.75;2.70;;;16.70;99.90;;;;;;4879325;29;20489;-73
2022/07/22 05:22:08;;;;;;;10.38;2.78;;;16.70;99.90;;;;;;4891076;29;20100;-72
2022/07/22 05:24:35;;;;;;;9.30;2.60;;;16.70;99.90;;;;;;4888696;29;20040;-72
2022/07/22 05:27:00;;;;;;;8.30;2.83;;;16.70;99.90;;;;;;4894964;29;20390;-72
2022/07/22 05:29:26;;;;;;;7.50;2.60;;;16.80;99.90;;;;;;4891149;29;20108;-72
2022/07/22 05:31:52;;;;;;;9.48;2.53;;;16.80;99.90;;;;;;4893517;29;20044;-72
2022/07/22 05:34:17;;;;;;;9.98;2.72;;;16.80;99.90;;;;;;4893305;29;20059;-73
2022/07/22 05:36:43;;;;;;;9.23;2.72;;;16.80;99.90;;;;;;4888965;29;20063;-74
2022/07/22 05:39:09;;;;;;;6.00;2.17;;;16.80;99.90;;;;;;4878011;29;20048;-73
2022/07/22 05:41:35;;;;;;;9.38;2.80;;;16.80;99.90;;;;;;4886708;29;20053;-74
2022/07/22 05:44:01;;;;;;;10.13;2.58;;;16.90;99.90;;;;;;4892142;29;20408;-73
2022/07/22 05:46:33;;;;;;;6.55;2.42;;;16.90;99.90;;;;;;4887702;29;20040;-75
2022/07/22 05:48:58;;;;;;;6.57;2.50;;;16.90;99.90;;;;;;4883475;29;20159;-73
2022/07/22 05:51:24;;;;;;;10.18;2.80;;;16.90;99.90;;;;;;4885200;29;20509;-73
2022/07/22 05:53:53;;;;;;;7.78;2.28;;;16.90;99.90;;;;;;4886395;29;20060;-73
2022/07/22 05:56:19;;;;;;;7.60;2.45;;;16.90;99.90;;;;;;4885296;29;20056;-72
2022/07/22 05:58:45;;;;;;;6.63;2.45;;;16.90;99.90;;;;;;4883128;29;20048;-73
2022/07/22 06:01:11;;;;;;;13.10;3.15;;;16.90;99.90;;;;;;4886888;29;20076;-73
2022/07/22 06:03:37;;;;;;;8.07;2.33;;;16.90;99.90;;;;;;4891433;29;20491;-72
2022/07/22 06:06:08;;;;;;;9.45;2.15;;;17.00;99.90;;;;;;4891709;29;20568;-73
2022/07/22 06:08:35;;;;;;;8.00;2.53;;;17.00;99.90;;;;;;4886652;29;20083;-73
2022/07/22 06:11:00;;;;;;;7.95;2.40;;;17.00;99.90;;;;;;4887401;29;20078;-73
2022/07/22 06:13:27;;;;;;;5.50;2.20;;;17.00;99.90;;;;;;4889426;29;20120;-74
2022/07/22 06:15:55;;;;;;;7.72;2.50;;;17.10;99.90;;;;;;4889321;29;20491;-73
2022/07/22 06:18:24;;;;;;;10.20;2.97;;;17.10;99.90;;;;;;4890240;29;20049;-74
2022/07/22 06:20:50;;;;;;;7.63;2.47;;;17.10;99.90;;;;;;4888355;29;20104;-73
2022/07/22 06:23:15;;;;;;;7.47;2.70;;;17.10;99.90;;;;;;4882422;29;20466;-72
2022/07/22 06:25:42;;;;;;;5.13;2.13;;;17.10;99.90;;;;;;4873174;29;20433;-73
2022/07/22 06:28:08;;;;;;;8.15;2.10;;;17.20;99.90;;;;;;4878616;29;20299;-73
2022/07/22 06:30:34;;;;;;;6.80;2.03;;;17.20;99.90;;;;;;4889099;29;20037;-73
2022/07/22 06:33:00;;;;;;;8.07;2.08;;;17.20;99.90;;;;;;4889790;29;20059;-74
2022/07/22 06:35:28;;;;;;;6.95;1.98;;;17.20;99.90;;;;;;4893130;29;20045;-73
2022/07/22 06:37:54;;;;;;;6.60;2.17;;;17.20;99.90;;;;;;4887978;29;20048;-71
2022/07/22 06:40:20;;;;;;;6.95;2.00;;;17.30;99.90;;;;;;4892429;29;20063;-72
2022/07/22 06:42:46;;;;;;;7.05;2.40;;;17.30;99.90;;;;;;4885648;29;20041;-73
2022/07/22 06:45:18;;;;;;;5.82;2.15;;;17.30;99.90;;;;;;4880276;29;20053;-73
2022/07/22 06:47:43;;;;;;;7.97;2.22;;;17.30;99.90;;;;;;4886118;29;20049;-71
2022/07/22 06:50:09;;;;;;;6.82;2.10;;;17.30;99.90;;;;;;4886637;29;20139;-72
2022/07/22 06:52:48;;;;;;;4.03;1.90;;;17.40;99.90;;;;;;4889712;29;20059;-73
2022/07/22 06:55:15;;;;;;;6.22;2.03;;;17.40;99.90;;;;;;4888267;29;20041;-74
2022/07/22 06:57:40;;;;;;;5.22;1.80;;;17.40;99.90;;;;;;4893353;29;20052;-72
2022/07/22 07:00:10;;;;;;;5.75;1.90;;;17.50;99.90;;;;;;4893701;29;20642;-72
2022/07/22 07:02:36;;;;;;;7.05;2.40;;;17.50;99.90;;;;;;4873366;29;20064;-73
2022/07/22 07:05:02;;;;;;;7.68;2.30;;;17.50;99.90;;;;;;4871485;29;20063;-73
2022/07/22 07:07:28;;;;;;;5.38;1.90;;;17.60;99.90;;;;;;4888986;29;20095;-73
2022/07/22 07:09:54;;;;;;;8.55;2.13;;;17.60;99.90;;;;;;4888621;29;20060;-73
2022/07/22 07:12:20;;;;;;;7.22;1.83;;;17.60;99.90;;;;;;4891047;29;20087;-72
2022/07/22 07:14:45;;;;;;;7.32;1.80;;;17.60;99.90;;;;;;4888223;29;20063;-73
2022/07/22 07:17:12;;;;;;;8.00;2.00;;;17.60;99.90;;;;;;4892642;29;20089;-73
2022/07/22 07:19:37;;;;;;;7.35;2.08;;;17.70;99.90;;;;;;4896622;29;20052;-73
2022/07/22 07:22:03;;;;;;;8.82;2.20;;;17.70;99.90;;;;;;4895216;29;20041;-72
2022/07/22 07:24:29;;;;;;;6.78;2.28;;;17.60;99.90;;;;;;4897119;29;20051;-75
2022/07/22 07:26:54;;;;;;;5.60;1.52;;;17.70;99.90;;;;;;4895449;29;20488;-73
2022/07/22 07:29:22;;;;;;;4.65;1.95;;;17.70;99.90;;;;;;4893123;29;20056;-74
2022/07/22 07:31:48;;;;;;;;;;;17.80;99.90;;;;;;4895618;29;20045;-73
2022/07/22 07:34:13;;;;;;;5.78;1.80;;;17.80;99.90;;;;;;4897125;29;19934;-72
2022/07/22 07:36:39;;;;;;;6.18;1.60;;;17.90;99.90;;;;;;4892741;29;20437;-72
2022/07/22 07:39:05;;;;;;;8.40;2.38;;;17.90;99.90;;;;;;4880689;29;20048;-75
2022/07/22 07:41:40;;;;;;;8.18;1.95;;;17.90;99.90;;;;;;4889879;29;20044;-74
2022/07/22 07:44:07;;;;;;;8.02;1.85;;;18.00;99.90;;;;;;4886973;29;21049;-74
2022/07/22 07:46:33;;;;;;;7.30;1.90;;;18.00;99.90;;;;;;4876936;29;20076;-73
2022/07/22 07:48:59;;;;;;;7.38;1.50;;;18.00;99.90;;;;;;4892839;29;20591;-73
2022/07/22 07:51:24;;;;;;;6.13;1.80;;;18.00;99.90;;;;;;4896586;29;20061;-73
2022/07/22 07:53:50;;;;;;;7.80;2.05;;;18.10;99.90;;;;;;4894499;29;20114;-73
2022/07/22 07:56:16;;;;;;;5.85;1.83;;;18.10;99.90;;;;;;4896214;29;20646;-73
2022/07/22 07:58:42;;;;;;;6.00;1.50;;;18.10;99.90;;;;;;4894615;29;20200;-73
2022/07/22 08:01:08;;;;;;;5.03;1.80;;;18.10;99.90;;;;;;4890430;29;20044;-74
2022/07/22 08:03:36;;;;;;;7.97;1.90;;;18.20;99.90;;;;;;4885607;29;20132;-74
2022/07/22 08:06:16;;;;;;;3.65;1.42;;;18.20;99.90;;;;;;4889424;29;20574;-74
2022/07/22 08:08:48;;;;;;;6.00;1.70;;;18.30;99.90;;;;;;4894358;29;20043;-72
2022/07/22 08:11:14;;;;;;;5.45;1.60;;;18.20;99.90;;;;;;4881516;29;20059;-73
2022/07/22 08:13:39;;;;;;;4.82;1.48;;;18.20;99.90;;;;;;4886790;29;20040;-75
2022/07/22 08:16:20;;;;;;;6.00;1.60;;;18.30;99.90;;;;;;4896694;29;20077;-75
2022/07/22 08:19:14;;;;;;;7.32;2.00;;;18.40;99.90;;;;;;4891743;29;20040;-73
2022/07/22 08:21:41;;;;;;;6.28;1.70;;;18.40;99.90;;;;;;4889950;29;20041;-74
2022/07/22 08:24:15;;;;;;;8.85;1.75;;;18.30;99.90;;;;;;4893722;29;20195;-73
2022/07/22 08:26:41;;;;;;;6.20;1.40;;;18.40;99.90;;;;;;4878917;29;20694;-73
2022/07/22 08:29:09;;;;;;;6.03;1.65;;;18.30;99.90;;;;;;4899137;29;20063;-72
2022/07/22 08:31:35;;;;;;;6.20;1.80;;;18.30;99.90;;;;;;4893269;29;20093;-73
2022/07/22 08:34:03;;;;;;;5.65;1.73;;;18.30;99.90;;;;;;4895692;29;20045;-72
2022/07/22 08:36:29;;;;;;;6.18;1.42;;;18.40;99.90;;;;;;4876810;29;20053;-75
2022/07/22 08:38:56;;;;;;;8.17;2.00;;;18.30;99.90;;;;;;4895117;29;20161;-73
2022/07/22 08:41:23;;;;;;;3.90;1.63;;;18.30;99.90;;;;;;4896346;29;20368;-73
2022/07/22 08:43:49;;;;;;;;;;;18.40;99.90;;;;;;4886528;29;20104;-74
2022/07/22 08:46:15;;;;;;;6.32;1.95;;;18.40;99.90;;;;;;4881295;29;19923;-73
2022/07/22 08:48:44;;;;;;;5.65;1.75;;;18.30;99.90;;;;;;4893397;29;20408;-73
2022/07/22 08:51:20;;;;;;;5.88;1.80;;;18.40;99.90;;;;;;4890341;29;20057;-72
2022/07/22 08:53:45;;;;;;;6.95;2.03;;;18.50;99.90;;;;;;4893941;29;20044;-72
2022/07/22 08:56:13;;;;;;;5.07;1.90;;;18.50;99.90;;;;;;4895256;29;20395;-73
2022/07/22 08:58:38;;;;;;;;;;;18.60;99.90;;;;;;4879528;29;20060;-72
2022/07/22 09:01:15;;;;;;;5.95;1.63;;;18.60;99.90;;;;;;4895466;29;19923;-72
2022/07/22 09:03:46;;;;;;;7.43;1.60;;;18.60;99.90;;;;;;4884722;29;20079;-73
2022/07/22 09:06:12;;;;;;;4.85;1.60;;;18.60;99.90;;;;;;4896492;29;20073;-74
2022/07/22 09:08:58;;;;;;;6.47;1.90;;;18.80;99.90;;;;;;4892775;29;20040;-74
2022/07/22 09:11:26;;;;;;;3.65;1.40;;;19.10;99.90;;;;;;4894526;29;20065;-73
2022/07/22 09:13:52;;;;;;;5.43;1.60;;;19.20;99.90;;;;;;4893451;29;20032;-72
2022/07/22 09:16:41;;;;;;;5.60;1.60;;;19.20;99.90;;;;;;4887632;29;20072;-75
2022/07/22 09:19:07;;;;;;;8.85;1.77;;;19.20;99.90;;;;;;4883137;29;20055;-73
2022/07/22 09:21:36;;;;;;;4.80;1.33;;;19.30;99.90;;;;;;4886113;29;20049;-74
2022/07/22 09:24:03;;;;;;;4.38;1.40;;;19.20;99.90;;;;;;4878734;29;20049;-74
2022/07/22 09:26:30;;;;;;;;;;;19.20;99.90;;;;;;4894718;29;20047;-74
2022/07/22 09:28:57;;;;;;;7.82;1.83;;;19.10;99.90;;;;;;4891126;29;20344;-72
2022/07/22 09:31:25;;;;;;;4.65;1.55;;;19.10;99.90;;;;;;4894031;29;20049;-72
2022/07/22 09:33:53;;;;;;;6.78;1.73;;;19.10;99.90;;;;;;4893159;29;20429;-72
2022/07/22 09:36:19;;;;;;;5.20;1.42;;;19.10;99.90;;;;;;4894994;29;20052;-72
2022/07/22 09:38:48;;;;;;;9.88;2.00;;;19.20;99.90;;;;;;4891402;29;20394;-74
2022/07/22 09:41:14;;;;;;;5.97;1.80;;;19.10;99.90;;;;;;4875785;29;20524;-74
2022/07/22 09:43:40;;;;;;;5.05;1.60;;;19.10;99.90;;;;;;4875340;29;20049;-74
2022/07/22 09:46:05;;;;;;;7.35;1.80;;;19.00;99.90;;;;;;4857479;29;20079;-80
2022/07/22 09:48:32;;;;;;;6.10;1.70;;;19.10;99.90;;;;;;4880784;29;20396;-75
2022/07/22 09:50:58;;;;;;;7.40;1.63;;;19.10;99.90;;;;;;4890342;29;20060;-74
2022/07/22 09:53:30;;;;;;;6.85;2.03;;;19.00;99.90;;;;;;4889193;29;20055;-75
2022/07/22 09:55:57;;;;;;;6.82;1.60;;;19.00;99.90;;;;;;4882090;23;20059;-76
2022/07/22 09:58:23;;;;;;;;;;;19.00;99.90;;;;;;4894220;29;20135;-77
2022/07/22 10:00:51;;;;;;;7.93;1.77;;;19.00;99.90;;;;;;4874548;29;20023;-77
2022/07/22 10:03:26;;;;;;;9.48;1.98;;;19.00;99.90;;;;;;4893670;29;20943;-77
2022/07/22 10:05:53;;;;;;;6.82;1.73;;;18.90;99.90;;;;;;4895563;29;20049;-78
2022/07/22 10:08:20;;;;;;;4.50;1.70;;;18.90;99.90;;;;;;4889639;29;20496;-74
2022/07/22 10:10:45;;;;;;;5.03;1.63;;;19.00;99.90;;;;;;4894769;29;20055;-72
2022/07/22 10:13:14;;;;;;;7.32;1.83;;;19.10;99.90;;;;;;4893653;29;20048;-75
2022/07/22 10:15:40;;;;;;;6.25;2.00;;;19.10;99.90;;;;;;4893924;29;20045;-73
2022/07/22 10:18:08;;;;;;;7.65;2.20;;;19.20;99.90;;;;;;4876222;29;20452;-75
2022/07/22 10:20:35;;;;;;;6.15;1.63;;;19.30;99.90;;;;;;4893544;29;20053;-76
2022/07/22 10:23:01;;;;;;;;;;;19.40;99.90;;;;;;4890361;29;20139;-74
2022/07/22 10:25:47;;;;;;;4.65;1.80;;;19.40;99.90;;;;;;4891806;29;20026;-74
2022/07/22 10:28:34;;;;;;;4.43;1.60;;;19.40;99.90;;;;;;4895455;29;20056;-72
2022/07/22 10:31:20;;;;;;;6.93;1.88;;;19.50;99.90;;;;;;4894827;29;20424;-72
2022/07/22 10:33:49;;;;;;;5.83;2.00;;;19.60;99.90;;;;;;4873212;29;20092;-74
2022/07/22 10:36:30;;;;;;;4.80;1.80;;;19.70;99.90;;;;;;4895916;29;20048;-74
2022/07/22 10:39:08;;;;;;;3.83;1.50;;;19.70;99.90;;;;;;4894282;29;20423;-72
2022/07/22 10:41:36;;;;;;;5.55;1.70;;;19.80;99.90;;;;;;4896470;29;20084;-73
2022/07/22 10:44:02;;;;;;;6.88;1.88;;;19.80;99.90;;;;;;4892823;29;20048;-73
2022/07/22 10:47:03;;;;;;;4.70;1.83;;;19.70;99.90;;;;;;4895210;29;20063;-73
2022/07/22 10:49:29;;;;;;;5.22;1.52;;;19.70;99.90;;;;;;4837725;29;20095;-73
2022/07/22 10:52:06;;;;;;;4.80;1.30;;;19.80;99.90;;;;;;4885126;29;20053;-73
2022/07/22 10:54:32;;;;;;;5.72;1.60;;;19.90;99.90;;;;;;4894688;29;20052;-75
2022/07/22 10:57:00;;;;;;;5.30;1.77;;;19.90;99.90;;;;;;4889632;29;20060;-72
2022/07/22 10:59:26;;;;;;;5.85;1.75;;;20.00;99.90;;;;;;4891892;29;20510;-72
2022/07/22 11:01:54;;;;;;;6.18;1.58;;;20.00;99.90;;;;;;4893983;29;20124;-69
2022/07/22 11:04:26;;;;;;;3.97;1.60;;;20.00;99.90;;;;;;4895727;29;20048;-72
2022/07/22 11:06:54;;;;;;;6.00;1.52;;;20.10;99.90;;;;;;4894832;29;20044;-74
2022/07/22 11:09:30;;;;;;;4.93;1.50;;;20.10;99.90;;;;;;4895454;29;20077;-71
2022/07/22 11:11:56;;;;;;;5.38;1.70;;;20.20;99.90;;;;;;4891493;29;20401;-71
2022/07/22 11:14:32;;;;;;;4.22;1.45;;;20.40;99.90;;;;;;4890677;29;20055;-70
2022/07/22 11:17:03;;;;;;;5.17;1.57;;;20.60;99.90;;;;;;4895943;29;20485;-72
2022/07/22 11:19:31;;;;;;;3.72;1.50;;;20.60;99.90;;;;;;4895791;29;20400;-71
2022/07/22 11:22:04;;;;;;;2.90;1.48;;;20.80;99.90;;;;;;4894988;29;20060;-72
2022/07/22 11:24:30;;;;;;;5.97;1.67;;;20.80;99.90;;;;;;4893958;29;20056;-71
2022/07/22 11:26:58;;;;;;;3.47;1.50;;;20.80;99.90;;;;;;4869044;29;20049;-71
2022/07/22 11:29:24;;;;;;;6.10;1.60;;;20.70;99.90;;;;;;4895127;29;20476;-71
2022/07/22 11:31:49;;;;;;;3.65;1.20;;;20.70;99.90;;;;;;4892573;29;20123;-72
2022/07/22 11:34:16;;;;;;;2.97;1.25;;;20.60;99.90;;;;;;4875459;29;20068;-72
2022/07/22 11:36:43;;;;;;;4.47;1.20;;;20.60;99.90;;;;;;4893692;29;20048;-74
2022/07/22 11:39:11;;;;;;;6.43;1.27;;;20.50;99.90;;;;;;4894979;29;20047;-72
2022/07/22 11:41:38;;;;;;;3.17;1.27;;;20.40;99.90;;;;;;4893983;29;20048;-74
2022/07/22 11:44:04;;;;;;;4.30;1.45;;;20.30;99.90;;;;;;4895576;29;20040;-72
2022/07/22 11:46:39;;;;;;;4.03;1.40;;;20.20;99.90;;;;;;4892534;29;20044;-73
2022/07/22 11:49:06;;;;;;;5.03;1.55;;;20.30;99.90;;;;;;4895356;29;20127;-73
2022/07/22 11:51:33;;;;;;;;;;;20.20;99.90;;;;;;4894101;29;20051;-73
2022/07/22 11:54:00;;;;;;;5.03;1.50;;;20.10;99.90;;;;;;4894889;29;20018;-74
2022/07/22 11:56:26;;;;;;;4.78;1.55;;;20.20;99.90;;;;;;4892908;29;20121;-73
2022/07/22 11:58:54;;;;;;;4.60;1.40;;;20.20;99.90;;;;;;4890341;29;20520;-75
2022/07/22 12:01:21;;;;;;;6.50;1.90;;;20.20;99.90;;;;;;4894441;29;20040;-72
2022/07/22 12:03:49;;;;;;;6.07;1.60;;;20.20;99.90;;;;;;4896300;29;20036;-71
2022/07/22 12:06:17;;;;;;;5.80;1.50;;;20.20;99.90;;;;;;4894754;29;20052;-71
2022/07/22 12:08:49;;;;;;;7.95;1.65;;;20.10;99.90;;;;;;4892714;29;20077;-70
2022/07/22 12:11:16;;;;;;;3.30;1.55;;;20.00;99.90;;;;;;4879300;29;20067;-72
2022/07/22 12:13:50;;;;;;;6.97;2.00;;;20.00;99.90;;;;;;4892506;29;20040;-72
2022/07/22 12:16:23;;;;;;;5.18;1.80;;;19.90;99.90;;;;;;4895244;29;20052;-72
2022/07/22 12:19:01;;;;;;;4.35;1.60;;;19.90;99.90;;;;;;4892049;29;20056;-72
2022/07/22 12:21:28;;;;;;;7.90;1.83;;;19.90;99.90;;;;;;4862572;29;20049;-75
2022/07/22 12:24:12;;;;;;;7.82;2.17;;;19.90;99.90;;;;;;4891492;29;20044;-73
2022/07/22 12:26:40;;;;;;;5.88;1.92;;;19.80;99.90;;;;;;4893690;29;20089;-72
2022/07/22 12:29:14;;;;;;;7.20;1.90;;;19.80;99.90;;;;;;4892322;29;20449;-72
2022/07/22 12:32:00;;;;;;;5.50;1.70;;;19.80;99.90;;;;;;4894228;29;20465;-72
2022/07/22 12:34:55;;;;;;;5.80;2.05;;;19.90;99.90;;;;;;4892358;29;20057;-72
2022/07/22 12:37:33;;;;;;;5.75;1.80;;;19.80;99.90;;;;;;4888911;29;20107;-72
2022/07/22 12:40:03;;;;;;;7.68;2.10;;;19.80;99.90;;;;;;4874687;29;20060;-73
2022/07/22 12:42:34;;;;;;;6.53;1.70;;;19.80;99.90;;;;;;4877038;29;20107;-73
2022/07/22 12:45:14;;;;;;;5.72;1.92;;;19.90;99.90;;;;;;4886435;29;20155;-76
2022/07/22 12:47:53;;;;;;;6.55;2.22;;;20.00;99.90;;;;;;4887200;29;20048;-74